createdAt,value
2019-03-08T00:02:45.484Z,0.8
2019-03-08T00:07:51.359Z,0.7
2019-03-08T00:12:57.102Z,0.9
2019-03-08T00:18:02.917Z,0.8
2019-03-08T00:23:08.772Z,0.8
2019-03-08T00:28:15.111Z,0.8
2019-03-08T00:33:20.215Z,0.9
2019-03-08T00:38:25.464Z,0.8
2019-03-08T00:43:31.292Z,0.8
2019-03-08T00:48:36.809Z,0.9
2019-03-08T00:53:42.824Z,0.9
2019-03-08T00:58:49.367Z,1
2019-03-08T01:03:55.373Z,1.1
2019-03-08T01:09:00.448Z,1.1
2019-03-08T01:14:05.547Z,1.1
2019-03-08T01:19:10.624Z,1
2019-03-08T01:24:16.012Z,1
2019-03-08T01:29:21.579Z,1.1
2019-03-08T01:34:27.626Z,1.1
2019-03-08T01:39:32.920Z,1
2019-03-08T01:44:37.993Z,0.9
2019-03-08T01:49:43.235Z,0.9
2019-03-08T01:54:49.277Z,0.9
2019-03-08T01:59:55.882Z,0.8
2019-03-08T02:05:01.641Z,1.1
2019-03-08T02:10:06.918Z,1
2019-03-08T02:15:12.097Z,0.9
2019-03-08T02:20:17.292Z,1.1
2019-03-08T02:25:22.927Z,0.9
2019-03-08T02:30:28.767Z,1.1
2019-03-08T02:35:34.434Z,0.9
2019-03-08T02:40:43.071Z,0.9
2019-03-08T02:45:48.928Z,0.8
2019-03-08T02:50:55.102Z,0.9
2019-03-08T02:56:00.682Z,0.9
2019-03-08T03:01:07.073Z,1
2019-03-08T03:06:13.060Z,0.9
2019-03-08T03:11:17.656Z,0.9
2019-03-08T03:16:23.757Z,1
2019-03-08T03:21:29.641Z,0.9
2019-03-08T03:26:35.303Z,1
2019-03-08T03:31:40.982Z,1.2
2019-03-08T03:36:45.126Z,1
2019-03-08T03:41:50.487Z,0.9
2019-03-08T03:46:56.147Z,0.9
2019-03-08T03:52:02.406Z,0.9
2019-03-08T03:57:08.104Z,1
2019-03-08T04:02:13.877Z,1
2019-03-08T04:07:19.632Z,0.8
2019-03-08T04:12:25.593Z,0.8
2019-03-08T04:17:31.300Z,0.7
2019-03-08T04:22:37.736Z,0.8
2019-03-08T04:28:25.262Z,0.7
2019-03-08T04:33:30.900Z,0.8
2019-03-08T04:38:35.911Z,1
2019-03-08T04:43:41.101Z,0.9
2019-03-08T04:49:56.891Z,1.3
2019-03-08T04:55:02.444Z,1.1
2019-03-08T05:00:09.534Z,1
2019-03-08T05:05:17.086Z,1.2
2019-03-08T05:10:22.179Z,1.6
2019-03-08T05:15:28.025Z,1.9
2019-03-08T05:20:33.709Z,1.9
2019-03-08T05:25:38.961Z,2.2
2019-03-08T05:30:43.980Z,2.2
2019-03-08T05:35:49.616Z,2.2
2019-03-08T05:40:55.142Z,2.2
2019-03-08T05:46:01.578Z,2.3
2019-03-08T05:51:06.786Z,2.4
2019-03-08T05:56:12.316Z,2.7
2019-03-08T06:01:17.387Z,2.5
2019-03-08T06:06:22.620Z,2.5
2019-03-08T06:11:30.341Z,2.8
2019-03-08T06:16:36.358Z,2.7
2019-03-08T06:21:42.806Z,2.3
2019-03-08T06:26:48.050Z,2.8
2019-03-08T06:31:53.096Z,2.7
2019-03-08T06:36:58.426Z,2.6
2019-03-08T06:42:04.572Z,2.9
2019-03-08T06:47:10.349Z,2.5
2019-03-08T06:52:15.727Z,2.5
2019-03-08T06:57:21.722Z,2.8
2019-03-08T07:02:27.175Z,2.5
2019-03-08T07:07:35.492Z,2.9
2019-03-08T07:12:39.949Z,2.6
2019-03-08T07:17:45.920Z,2.4
2019-03-08T07:22:51.904Z,2.7
2019-03-08T07:27:56.476Z,2.8
2019-03-08T07:33:02.313Z,2.8
2019-03-08T07:38:08.278Z,3.4
2019-03-08T07:43:13.962Z,2.9
2019-03-08T07:48:18.737Z,3.3
2019-03-08T07:53:24.370Z,3.1
2019-03-08T07:58:30.439Z,3.1
2019-03-08T08:03:38.175Z,3.3
2019-03-08T08:08:52.403Z,2.8
2019-03-08T08:13:48.258Z,3.1
2019-03-08T08:18:51.688Z,2.9
2019-03-08T08:23:56.913Z,2.8
2019-03-08T08:29:02.574Z,2.9
2019-03-08T08:34:08.309Z,2.9
2019-03-08T08:39:14.471Z,3
2019-03-08T08:44:20.136Z,3.3
2019-03-08T08:49:25.924Z,3
2019-03-08T08:54:31.386Z,3.3
2019-03-08T08:59:36.836Z,3.5
2019-03-08T09:04:42.816Z,3.4
2019-03-08T09:09:49.451Z,3.1
2019-03-08T09:14:55.229Z,3.3
2019-03-08T09:20:00.744Z,3.5
2019-03-08T09:25:06.103Z,2.9
2019-03-08T09:30:10.852Z,3.2
2019-03-08T09:35:17.184Z,3.2
2019-03-08T09:40:22.916Z,3.1
2019-03-08T09:45:28.793Z,3.1
2019-03-08T09:50:35.072Z,3.1
2019-03-08T09:55:41.061Z,3.2
2019-03-08T10:00:47.894Z,2.9
2019-03-08T10:05:53.805Z,2.9
2019-03-08T10:10:59.387Z,2.6
2019-03-08T10:16:05.249Z,3
2019-03-08T10:21:11.224Z,3.1
2019-03-08T10:26:17.217Z,2.8
2019-03-08T10:31:21.736Z,2.9
2019-03-08T10:36:27.172Z,2.9
2019-03-08T10:41:33.299Z,2.8
2019-03-08T10:46:39.275Z,3
2019-03-08T10:51:43.814Z,2.6
2019-03-08T10:56:49.375Z,2.6
2019-03-08T11:01:54.914Z,3
2019-03-08T11:07:01.026Z,2.8
2019-03-08T11:12:08.885Z,2.9
2019-03-08T11:17:14.008Z,2.6
2019-03-08T11:22:19.606Z,2.4
2019-03-08T11:27:25.290Z,2.7
2019-03-08T11:32:30.392Z,2.6
2019-03-08T11:37:35.879Z,2.7
2019-03-08T11:42:41.709Z,2.4
2019-03-08T11:47:46.767Z,2.5
2019-03-08T11:52:52.080Z,2.3
2019-03-08T11:57:57.252Z,2.4
2019-03-08T12:03:03.387Z,2.6
2019-03-08T12:08:08.751Z,2.6
2019-03-08T12:13:14.834Z,2.8
2019-03-08T12:18:21.228Z,2.3
2019-03-08T12:23:27.132Z,2.4
2019-03-08T12:28:32.208Z,2.2
2019-03-08T12:33:37.535Z,2.2
2019-03-08T12:38:42.569Z,2.3
2019-03-08T12:43:48.728Z,2.3
2019-03-08T12:48:54.413Z,2.4
2019-03-08T12:54:00.795Z,2.1
2019-03-08T12:59:05.852Z,2.1
2019-03-08T13:04:11.723Z,2.4
2019-03-08T13:09:16.867Z,2.3
2019-03-08T13:14:23.076Z,2.1
2019-03-08T13:19:28.431Z,2.3
2019-03-08T13:24:34.083Z,2.8
2019-03-08T13:29:39.971Z,3
2019-03-08T13:34:45.754Z,2.5
2019-03-08T13:39:51.707Z,2.5
2019-03-08T13:44:57.697Z,2.9
2019-03-08T13:50:03.191Z,2.4
2019-03-08T13:55:10.669Z,2.7
2019-03-08T14:00:16.591Z,2.6
2019-03-08T14:05:22.217Z,2.6
2019-03-08T14:10:27.581Z,2.5
2019-03-08T14:15:33.227Z,2.3
2019-03-08T14:20:38.909Z,2.2
2019-03-08T14:25:44.680Z,2.2
2019-03-08T14:30:58.644Z,2.2
2019-03-08T14:35:54.816Z,2.2
2019-03-08T14:41:00.681Z,2.4
2019-03-08T14:46:06.601Z,2.2
2019-03-08T14:51:13.858Z,2.3
2019-03-08T14:56:19.254Z,2.4
2019-03-08T15:01:25.053Z,2.1
2019-03-08T15:06:31.217Z,2.3
2019-03-08T15:11:36.603Z,2.1
2019-03-08T15:16:41.900Z,2.2
2019-03-08T15:21:49.615Z,2.2
2019-03-08T15:26:55.313Z,2
2019-03-08T15:32:00.141Z,1.9
2019-03-08T15:37:05.241Z,2.3
2019-03-08T15:42:10.258Z,2
2019-03-08T15:47:24.327Z,2.1
2019-03-08T15:52:19.494Z,1.9
2019-03-08T15:57:24.890Z,1.8
2019-03-08T16:02:29.878Z,2
2019-03-08T16:07:34.942Z,1.9
2019-03-08T16:12:39.923Z,2.2
2019-03-08T16:17:45.898Z,2.1
2019-03-08T16:22:51.174Z,2.2
2019-03-08T16:27:56.913Z,2.1
2019-03-08T16:33:02.912Z,2
2019-03-08T16:38:08.846Z,2.3
2019-03-08T16:43:14.222Z,2.3
2019-03-08T16:48:20.247Z,2.1
2019-03-08T16:53:25.637Z,2.1
2019-03-08T16:58:32.466Z,2
2019-03-08T17:03:38.441Z,2.2
2019-03-08T17:08:44.769Z,2.3
2019-03-08T17:13:50.592Z,2
2019-03-08T17:18:56.096Z,2
2019-03-08T17:24:01.447Z,1.9
2019-03-08T17:29:05.139Z,2.2
2019-03-08T17:34:10.872Z,2
2019-03-08T17:39:16.951Z,1.9
2019-03-08T17:44:22.613Z,2.1
2019-03-08T17:49:28.566Z,2
2019-03-08T17:54:32.519Z,2
2019-03-08T17:59:38.115Z,2.1
2019-03-08T18:04:44.036Z,2
2019-03-08T18:09:49.947Z,1.9
2019-03-08T18:14:55.948Z,1.9
2019-03-08T18:20:01.966Z,1.9
2019-03-08T18:25:07.351Z,1.9
2019-03-08T18:30:15.604Z,2
2019-03-08T18:35:21.368Z,2
2019-03-08T18:40:28.957Z,1.8
2019-03-08T18:45:34.765Z,2.2
2019-03-08T18:50:40.100Z,1.9
2019-03-08T18:55:45.653Z,2.1
2019-03-08T19:00:51.211Z,2
2019-03-08T19:05:54.940Z,2
2019-03-08T19:11:00.906Z,2.1
2019-03-08T19:16:06.520Z,2.2
2019-03-08T19:21:11.068Z,1.9
2019-03-08T19:26:16.905Z,2.1
2019-03-08T19:31:23.492Z,2.3
2019-03-08T19:36:30.699Z,2.2
2019-03-08T19:41:36.760Z,2.6
2019-03-08T19:46:41.817Z,2.3
2019-03-08T19:51:47.289Z,2.5
2019-03-08T19:56:52.373Z,2.5
2019-03-08T20:01:57.653Z,2.8
2019-03-08T20:07:03.563Z,2.3
2019-03-08T20:12:08.698Z,2.2
2019-03-08T20:17:14.682Z,2.5
2019-03-08T20:22:20.605Z,2.4
2019-03-08T20:27:26.299Z,2.5
2019-03-08T20:32:32.413Z,2.7
2019-03-08T20:37:38.134Z,2.6
2019-03-08T20:42:43.311Z,2.8
2019-03-08T20:47:49.069Z,2.7
2019-03-08T20:52:54.247Z,2.7
2019-03-08T20:57:59.365Z,2.6
2019-03-08T21:03:04.633Z,2.7
2019-03-08T21:08:10.430Z,2.6
2019-03-08T21:13:15.829Z,2.7
2019-03-08T21:18:21.008Z,2.9
2019-03-08T21:23:26.409Z,3
2019-03-08T21:28:31.731Z,2.8
2019-03-08T21:33:37.464Z,2.8
2019-03-08T21:38:42.920Z,2.8
2019-03-08T21:43:48.428Z,2.5
2019-03-08T21:48:54.187Z,2.5
2019-03-08T21:53:59.583Z,2.8
2019-03-08T21:59:05.104Z,2.4
2019-03-08T22:04:11.103Z,2.7
2019-03-08T22:09:17.217Z,2.6
2019-03-08T22:14:23.458Z,2.7
2019-03-08T22:19:29.033Z,2.6
2019-03-08T22:24:35.924Z,2.5
2019-03-08T22:29:42.135Z,2.6
2019-03-08T22:34:48.102Z,2.7
2019-03-08T22:39:53.235Z,2.5
2019-03-08T22:45:00.123Z,2.4
2019-03-08T22:50:05.251Z,2.8
2019-03-08T22:55:10.927Z,2.6
2019-03-08T23:00:16.682Z,2.7
2019-03-08T23:05:21.884Z,2.5
2019-03-08T23:10:28.201Z,2.6
2019-03-08T23:15:34.158Z,2.6
2019-03-08T23:20:39.613Z,3
2019-03-08T23:25:45.436Z,2.6
2019-03-08T23:30:50.406Z,2.6
2019-03-08T23:35:55.571Z,2.5
2019-03-08T23:41:00.558Z,2.6
2019-03-08T23:46:05.571Z,2.7
2019-03-08T23:51:10.705Z,2.8
2019-03-08T23:56:15.862Z,2.6
